sensor_id;sensor_type;location;lat;lon;timestamp;P1;durP1;ratioP1;P2;durP2;ratioP2
19554;SDS011;9924;50.828;6.440;2022-07-25T00:00:40;12.70;;;5.65;;
19554;SDS011;9924;50.828;6.440;2022-07-25T00:03:06;8.00;;;5.32;;
19554;SDS011;9924;50.828;6.440;2022-07-25T00:05:32;8.57;;;5.65;;
19554;SDS011;9924;50.828;6.440;2022-07-25T00:07:58;9.65;;;5.97;;
19554;SDS011;9924;50.828;6.440;2022-07-25T00:10:24;6.55;;;5.00;;
19554;SDS011;9924;50.828;6.440;2022-07-25T00:12:50;7.68;;;5.75;;
19554;SDS011;9924;50.828;6.440;2022-07-25T00:15:16;6.88;;;5.15;;
19554;SDS011;9924;50.828;6.440;2022-07-25T00:17:41;9.15;;;5.53;;
19554;SDS011;9924;50.828;6.440;2022-07-25T00:20:07;7.20;;;5.22;;
19554;SDS011;9924;50.828;6.440;2022-07-25T00:22:33;8.18;;;6.35;;
19554;SDS011;9924;50.828;6.440;2022-07-25T00:24:59;10.70;;;5.45;;
19554;SDS011;9924;50.828;6.440;2022-07-25T00:27:25;10.35;;;6.28;;
19554;SDS011;9924;50.828;6.440;2022-07-25T00:29:51;8.02;;;5.47;;
19554;SDS011;9924;50.828;6.440;2022-07-25T00:32:17;10.15;;;6.25;;
19554;SDS011;9924;50.828;6.440;2022-07-25T00:34:43;12.40;;;5.82;;
19554;SDS011;9924;50.828;6.440;2022-07-25T00:37:08;8.77;;;6.13;;
19554;SDS011;9924;50.828;6.440;2022-07-25T00:39:34;7.78;;;5.88;;
19554;SDS011;9924;50.828;6.440;2022-07-25T00:42:00;9.25;;;5.75;;
19554;SDS011;9924;50.828;6.440;2022-07-25T00:44:29;7.60;;;5.60;;
19554;SDS011;9924;50.828;6.440;2022-07-25T00:46:56;9.23;;;5.90;;
19554;SDS011;9924;50.828;6.440;2022-07-25T00:49:22;11.23;;;6.22;;
19554;SDS011;9924;50.828;6.440;2022-07-25T00:51:49;10.77;;;6.20;;
19554;SDS011;9924;50.828;6.440;2022-07-25T00:54:16;10.65;;;6.18;;
19554;SDS011;9924;50.828;6.440;2022-07-25T00:56:42;8.52;;;6.32;;
19554;SDS011;9924;50.828;6.440;2022-07-25T00:59:08;8.35;;;5.25;;
19554;SDS011;9924;50.828;6.440;2022-07-25T01:01:35;8.80;;;5.25;;
19554;SDS011;9924;50.828;6.440;2022-07-25T01:04:02;7.82;;;5.65;;
19554;SDS011;9924;50.828;6.440;2022-07-25T01:06:29;11.23;;;5.82;;
19554;SDS011;9924;50.828;6.440;2022-07-25T01:08:55;7.25;;;4.95;;
19554;SDS011;9924;50.828;6.440;2022-07-25T01:11:22;8.38;;;5.72;;
19554;SDS011;9924;50.828;6.440;2022-07-25T01:13:48;7.55;;;5.40;;
19554;SDS011;9924;50.828;6.440;2022-07-25T01:16:14;7.82;;;5.57;;
19554;SDS011;9924;50.828;6.440;2022-07-25T01:18:40;10.70;;;5.60;;
19554;SDS011;9924;50.828;6.440;2022-07-25T01:21:05;8.30;;;5.80;;
19554;SDS011;9924;50.828;6.440;2022-07-25T01:23:31;10.10;;;5.72;;
19554;SDS011;9924;50.828;6.440;2022-07-25T01:25:57;8.73;;;5.72;;
19554;SDS011;9924;50.828;6.440;2022-07-25T01:28:23;7.65;;;5.35;;
19554;SDS011;9924;50.828;6.440;2022-07-25T01:30:49;6.85;;;5.18;;
19554;SDS011;9924;50.828;6.440;2022-07-25T01:33:15;7.57;;;5.22;;
19554;SDS011;9924;50.828;6.440;2022-07-25T01:35:42;5.57;;;4.63;;
19554;SDS011;9924;50.828;6.440;2022-07-25T01:38:08;6.40;;;4.97;;
19554;SDS011;9924;50.828;6.440;2022-07-25T01:40:34;8.48;;;4.93;;
19554;SDS011;9924;50.828;6.440;2022-07-25T01:43:00;8.63;;;5.32;;
19554;SDS011;9924;50.828;6.440;2022-07-25T01:45:26;6.38;;;4.72;;
19554;SDS011;9924;50.828;6.440;2022-07-25T01:47:51;6.40;;;5.00;;
19554;SDS011;9924;50.828;6.440;2022-07-25T01:50:17;5.43;;;4.60;;
19554;SDS011;9924;50.828;6.440;2022-07-25T01:52:43;6.55;;;5.07;;
19554;SDS011;9924;50.828;6.440;2022-07-25T01:55:09;6.80;;;4.90;;
19554;SDS011;9924;50.828;6.440;2022-07-25T01:57:35;7.40;;;5.38;;
19554;SDS011;9924;50.828;6.440;2022-07-25T02:00:03;6.72;;;5.07;;
19554;SDS011;9924;50.828;6.440;2022-07-25T02:02:29;7.22;;;4.65;;
19554;SDS011;9924;50.828;6.440;2022-07-25T02:04:55;5.57;;;4.85;;
19554;SDS011;9924;50.828;6.440;2022-07-25T02:07:21;7.63;;;4.97;;
19554;SDS011;9924;50.828;6.440;2022-07-25T02:09:47;8.27;;;4.40;;
19554;SDS011;9924;50.828;6.440;2022-07-25T02:12:12;7.13;;;4.88;;
19554;SDS011;9924;50.828;6.440;2022-07-25T02:14:38;6.35;;;4.75;;
19554;SDS011;9924;50.828;6.440;2022-07-25T02:17:04;7.03;;;5.13;;
19554;SDS011;9924;50.828;6.440;2022-07-25T02:19:30;8.48;;;5.22;;
19554;SDS011;9924;50.828;6.440;2022-07-25T02:21:56;7.57;;;4.60;;
19554;SDS011;9924;50.828;6.440;2022-07-25T02:24:22;7.97;;;5.13;;
19554;SDS011;9924;50.828;6.440;2022-07-25T02:26:48;7.70;;;5.03;;
19554;SDS011;9924;50.828;6.440;2022-07-25T02:29:14;7.43;;;4.95;;
19554;SDS011;9924;50.828;6.440;2022-07-25T02:31:39;8.57;;;6.00;;
19554;SDS011;9924;50.828;6.440;2022-07-25T02:34:05;7.90;;;4.80;;
19554;SDS011;9924;50.828;6.440;2022-07-25T02:36:31;6.35;;;4.95;;
19554;SDS011;9924;50.828;6.440;2022-07-25T02:38:56;7.35;;;5.00;;
19554;SDS011;9924;50.828;6.440;2022-07-25T02:41:22;5.93;;;5.07;;
19554;SDS011;9924;50.828;6.440;2022-07-25T02:43:48;6.40;;;5.20;;
19554;SDS011;9924;50.828;6.440;2022-07-25T02:46:14;6.75;;;5.00;;
19554;SDS011;9924;50.828;6.440;2022-07-25T02:48:39;7.53;;;5.00;;
19554;SDS011;9924;50.828;6.440;2022-07-25T02:51:05;6.53;;;5.15;;
19554;SDS011;9924;50.828;6.440;2022-07-25T02:53:31;7.82;;;5.55;;
19554;SDS011;9924;50.828;6.440;2022-07-25T02:55:57;6.97;;;5.35;;
19554;SDS011;9924;50.828;6.440;2022-07-25T02:58:22;6.05;;;4.63;;
19554;SDS011;9924;50.828;6.440;2022-07-25T03:00:48;6.88;;;4.65;;
19554;SDS011;9924;50.828;6.440;2022-07-25T03:03:14;5.55;;;4.75;;
19554;SDS011;9924;50.828;6.440;2022-07-25T03:05:39;6.93;;;5.22;;
19554;SDS011;9924;50.828;6.440;2022-07-25T03:08:05;7.45;;;5.22;;
19554;SDS011;9924;50.828;6.440;2022-07-25T03:10:31;6.07;;;4.60;;
19554;SDS011;9924;50.828;6.440;2022-07-25T03:12:58;6.20;;;4.82;;
19554;SDS011;9924;50.828;6.440;2022-07-25T03:15:23;7.53;;;4.53;;
19554;SDS011;9924;50.828;6.440;2022-07-25T03:17:49;5.72;;;4.80;;
19554;SDS011;9924;50.828;6.440;2022-07-25T03:20:15;5.22;;;4.40;;
19554;SDS011;9924;50.828;6.440;2022-07-25T03:22:41;7.70;;;5.18;;
19554;SDS011;9924;50.828;6.440;2022-07-25T03:25:07;8.20;;;5.18;;
19554;SDS011;9924;50.828;6.440;2022-07-25T03:27:33;8.10;;;5.47;;
19554;SDS011;9924;50.828;6.440;2022-07-25T03:29:59;6.25;;;4.80;;
19554;SDS011;9924;50.828;6.440;2022-07-25T03:32:24;7.05;;;5.20;;
19554;SDS011;9924;50.828;6.440;2022-07-25T03:34:50;6.45;;;5.38;;
19554;SDS011;9924;50.828;6.440;2022-07-25T03:37:16;6.38;;;4.80;;
19554;SDS011;9924;50.828;6.440;2022-07-25T03:39:42;5.07;;;4.20;;
19554;SDS011;9924;50.828;6.440;2022-07-25T03:42:08;6.40;;;4.85;;
19554;SDS011;9924;50.828;6.440;2022-07-25T03:44:33;8.38;;;5.10;;
19554;SDS011;9924;50.828;6.440;2022-07-25T03:47:02;7.25;;;5.20;;
19554;SDS011;9924;50.828;6.440;2022-07-25T03:49:28;5.45;;;4.35;;
19554;SDS011;9924;50.828;6.440;2022-07-25T03:51:53;6.22;;;5.00;;
19554;SDS011;9924;50.828;6.440;2022-07-25T03:54:19;5.90;;;4.43;;
19554;SDS011;9924;50.828;6.440;2022-07-25T03:56:47;5.28;;;4.50;;
19554;SDS011;9924;50.828;6.440;2022-07-25T03:59:14;6.53;;;4.75;;
19554;SDS011;9924;50.828;6.440;2022-07-25T04:01:41;5.80;;;4.75;;
19554;SDS011;9924;50.828;6.440;2022-07-25T04:04:08;6.88;;;4.82;;
19554;SDS011;9924;50.828;6.440;2022-07-25T04:06:34;6.38;;;4.53;;
19554;SDS011;9924;50.828;6.440;2022-07-25T04:09:01;5.22;;;4.65;;
19554;SDS011;9924;50.828;6.440;2022-07-25T04:11:27;6.05;;;4.68;;
19554;SDS011;9924;50.828;6.440;2022-07-25T04:13:55;5.05;;;4.40;;
19554;SDS011;9924;50.828;6.440;2022-07-25T04:16:21;5.70;;;5.00;;
19554;SDS011;9924;50.828;6.440;2022-07-25T04:18:47;6.95;;;4.90;;
19554;SDS011;9924;50.828;6.440;2022-07-25T04:21:13;5.95;;;4.80;;
19554;SDS011;9924;50.828;6.440;2022-07-25T04:23:39;5.85;;;4.65;;
19554;SDS011;9924;50.828;6.440;2022-07-25T04:26:05;8.43;;;4.60;;
19554;SDS011;9924;50.828;6.440;2022-07-25T04:28:31;5.65;;;4.53;;
19554;SDS011;9924;50.828;6.440;2022-07-25T04:30:56;6.13;;;4.63;;
19554;SDS011;9924;50.828;6.440;2022-07-25T04:33:22;5.80;;;4.40;;
19554;SDS011;9924;50.828;6.440;2022-07-25T04:35:48;7.25;;;4.32;;
19554;SDS011;9924;50.828;6.440;2022-07-25T04:38:14;5.97;;;4.53;;
19554;SDS011;9924;50.828;6.440;2022-07-25T04:40:40;6.68;;;4.90;;
19554;SDS011;9924;50.828;6.440;2022-07-25T04:43:06;7.93;;;4.47;;
19554;SDS011;9924;50.828;6.440;2022-07-25T04:45:32;6.63;;;4.10;;
19554;SDS011;9924;50.828;6.440;2022-07-25T04:47:59;5.93;;;4.60;;
19554;SDS011;9924;50.828;6.440;2022-07-25T04:50:25;5.88;;;4.25;;
19554;SDS011;9924;50.828;6.440;2022-07-25T04:52:51;7.38;;;4.43;;
19554;SDS011;9924;50.828;6.440;2022-07-25T04:55:18;5.53;;;4.88;;
19554;SDS011;9924;50.828;6.440;2022-07-25T04:57:43;5.82;;;4.22;;
19554;SDS011;9924;50.828;6.440;2022-07-25T05:00:11;7.13;;;4.55;;
19554;SDS011;9924;50.828;6.440;2022-07-25T05:02:37;8.95;;;4.50;;
19554;SDS011;9924;50.828;6.440;2022-07-25T05:05:03;6.70;;;4.28;;
19554;SDS011;9924;50.828;6.440;2022-07-25T05:07:30;6.60;;;4.50;;
19554;SDS011;9924;50.828;6.440;2022-07-25T05:09:56;6.65;;;4.93;;
19554;SDS011;9924;50.828;6.440;2022-07-25T05:12:21;6.57;;;4.70;;
19554;SDS011;9924;50.828;6.440;2022-07-25T05:14:47;7.72;;;5.20;;
19554;SDS011;9924;50.828;6.440;2022-07-25T05:17:13;6.60;;;4.63;;
19554;SDS011;9924;50.828;6.440;2022-07-25T05:19:39;5.25;;;4.43;;
19554;SDS011;9924;50.828;6.440;2022-07-25T05:22:04;6.85;;;4.95;;
19554;SDS011;9924;50.828;6.440;2022-07-25T05:24:33;9.07;;;4.60;;
19554;SDS011;9924;50.828;6.440;2022-07-25T05:26:59;6.32;;;4.38;;
19554;SDS011;9924;50.828;6.440;2022-07-25T05:29:26;8.85;;;4.85;;
19554;SDS011;9924;50.828;6.440;2022-07-25T05:31:52;5.95;;;4.40;;
19554;SDS011;9924;50.828;6.440;2022-07-25T05:34:18;8.13;;;4.55;;
19554;SDS011;9924;50.828;6.440;2022-07-25T05:36:43;6.53;;;4.88;;
19554;SDS011;9924;50.828;6.440;2022-07-25T05:39:09;5.20;;;4.70;;
19554;SDS011;9924;50.828;6.440;2022-07-25T05:41:35;6.38;;;4.05;;
19554;SDS011;9924;50.828;6.440;2022-07-25T05:44:01;5.43;;;4.70;;
19554;SDS011;9924;50.828;6.440;2022-07-25T05:46:26;10.85;;;4.90;;
19554;SDS011;9924;50.828;6.440;2022-07-25T05:48:52;6.38;;;4.10;;
19554;SDS011;9924;50.828;6.440;2022-07-25T05:51:18;6.57;;;4.75;;
19554;SDS011;9924;50.828;6.440;2022-07-25T05:53:44;7.03;;;4.50;;
19554;SDS011;9924;50.828;6.440;2022-07-25T05:56:10;8.80;;;4.88;;
19554;SDS011;9924;50.828;6.440;2022-07-25T05:58:36;8.80;;;4.63;;
19554;SDS011;9924;50.828;6.440;2022-07-25T06:01:04;7.72;;;4.55;;
19554;SDS011;9924;50.828;6.440;2022-07-25T06:03:32;6.28;;;4.63;;
19554;SDS011;9924;50.828;6.440;2022-07-25T06:05:58;6.35;;;4.32;;
19554;SDS011;9924;50.828;6.440;2022-07-25T06:08:24;6.78;;;4.45;;
19554;SDS011;9924;50.828;6.440;2022-07-25T06:10:52;8.25;;;4.35;;
19554;SDS011;9924;50.828;6.440;2022-07-25T06:13:19;9.77;;;4.50;;
19554;SDS011;9924;50.828;6.440;2022-07-25T06:15:45;6.88;;;4.63;;
19554;SDS011;9924;50.828;6.440;2022-07-25T06:18:10;5.95;;;4.50;;
19554;SDS011;9924;50.828;6.440;2022-07-25T06:20:36;7.22;;;4.90;;
19554;SDS011;9924;50.828;6.440;2022-07-25T06:23:02;5.18;;;4.47;;
19554;SDS011;9924;50.828;6.440;2022-07-25T06:25:29;5.70;;;4.50;;
19554;SDS011;9924;50.828;6.440;2022-07-25T06:27:55;5.95;;;4.80;;
19554;SDS011;9924;50.828;6.440;2022-07-25T06:30:20;6.00;;;4.70;;
19554;SDS011;9924;50.828;6.440;2022-07-25T06:32:47;6.28;;;4.38;;
19554;SDS011;9924;50.828;6.440;2022-07-25T06:35:13;7.18;;;4.97;;
19554;SDS011;9924;50.828;6.440;2022-07-25T06:37:40;7.75;;;4.90;;
19554;SDS011;9924;50.828;6.440;2022-07-25T06:40:06;5.82;;;4.80;;
19554;SDS011;9924;50.828;6.440;2022-07-25T06:42:36;9.10;;;4.90;;
19554;SDS011;9924;50.828;6.440;2022-07-25T06:45:06;9.07;;;5.25;;
19554;SDS011;9924;50.828;6.440;2022-07-25T06:47:35;5.47;;;4.50;;
19554;SDS011;9924;50.828;6.440;2022-07-25T06:50:03;6.43;;;4.80;;
19554;SDS011;9924;50.828;6.440;2022-07-25T06:52:30;5.85;;;4.78;;
19554;SDS011;9924;50.828;6.440;2022-07-25T06:54:55;7.00;;;4.70;;
19554;SDS011;9924;50.828;6.440;2022-07-25T06:57:21;8.60;;;4.97;;
19554;SDS011;9924;50.828;6.440;2022-07-25T06:59:47;10.27;;;5.70;;
19554;SDS011;9924;50.828;6.440;2022-07-25T07:02:13;8.55;;;5.15;;
19554;SDS011;9924;50.828;6.440;2022-07-25T07:04:39;10.23;;;4.85;;
19554;SDS011;9924;50.828;6.440;2022-07-25T07:07:05;9.48;;;5.03;;
19554;SDS011;9924;50.828;6.440;2022-07-25T07:09:31;7.43;;;5.15;;
19554;SDS011;9924;50.828;6.440;2022-07-25T07:11:57;5.70;;;4.60;;
19554;SDS011;9924;50.828;6.440;2022-07-25T07:14:23;5.75;;;4.78;;
19554;SDS011;9924;50.828;6.440;2022-07-25T07:16:49;7.30;;;4.97;;
19554;SDS011;9924;50.828;6.440;2022-07-25T07:19:14;6.95;;;4.78;;
19554;SDS011;9924;50.828;6.440;2022-07-25T07:21:40;8.15;;;4.60;;
19554;SDS011;9924;50.828;6.440;2022-07-25T07:24:06;7.82;;;4.50;;
19554;SDS011;9924;50.828;6.440;2022-07-25T07:26:33;5.80;;;4.65;;
19554;SDS011;9924;50.828;6.440;2022-07-25T07:28:59;6.90;;;4.60;;
19554;SDS011;9924;50.828;6.440;2022-07-25T07:31:25;7.18;;;4.90;;
19554;SDS011;9924;50.828;6.440;2022-07-25T07:33:51;6.10;;;4.38;;
19554;SDS011;9924;50.828;6.440;2022-07-25T07:36:17;5.78;;;4.18;;
19554;SDS011;9924;50.828;6.440;2022-07-25T07:38:43;4.93;;;4.35;;
19554;SDS011;9924;50.828;6.440;2022-07-25T07:41:09;5.85;;;4.53;;
19554;SDS011;9924;50.828;6.440;2022-07-25T07:43:35;6.43;;;4.40;;
19554;SDS011;9924;50.828;6.440;2022-07-25T07:46:01;5.57;;;4.38;;
19554;SDS011;9924;50.828;6.440;2022-07-25T07:48:27;7.00;;;4.63;;
19554;SDS011;9924;50.828;6.440;2022-07-25T07:50:54;6.25;;;4.50;;
19554;SDS011;9924;50.828;6.440;2022-07-25T07:53:20;7.78;;;4.65;;
19554;SDS011;9924;50.828;6.440;2022-07-25T07:55:45;6.45;;;4.93;;
19554;SDS011;9924;50.828;6.440;2022-07-25T07:58:19;5.90;;;4.57;;
19554;SDS011;9924;50.828;6.440;2022-07-25T08:00:49;6.13;;;5.15;;
19554;SDS011;9924;50.828;6.440;2022-07-25T08:03:16;5.95;;;5.20;;
19554;SDS011;9924;50.828;6.440;2022-07-25T08:05:43;5.95;;;5.00;;
19554;SDS011;9924;50.828;6.440;2022-07-25T08:08:12;6.60;;;4.93;;
19554;SDS011;9924;50.828;6.440;2022-07-25T08:10:42;8.90;;;5.55;;
19554;SDS011;9924;50.828;6.440;2022-07-25T08:13:13;7.10;;;4.90;;
19554;SDS011;9924;50.828;6.440;2022-07-25T08:15:41;6.53;;;5.07;;
19554;SDS011;9924;50.828;6.440;2022-07-25T08:18:09;6.63;;;5.03;;
19554;SDS011;9924;50.828;6.440;2022-07-25T08:20:35;11.45;;;5.40;;
19554;SDS011;9924;50.828;6.440;2022-07-25T08:23:01;9.98;;;5.30;;
19554;SDS011;9924;50.828;6.440;2022-07-25T08:25:28;9.55;;;5.80;;
19554;SDS011;9924;50.828;6.440;2022-07-25T08:27:53;14.00;;;5.60;;
19554;SDS011;9924;50.828;6.440;2022-07-25T08:30:19;13.43;;;6.07;;
19554;SDS011;9924;50.828;6.440;2022-07-25T08:32:52;13.30;;;6.15;;
19554;SDS011;9924;50.828;6.440;2022-07-25T08:35:20;10.75;;;5.15;;
19554;SDS011;9924;50.828;6.440;2022-07-25T08:37:47;6.38;;;4.80;;
19554;SDS011;9924;50.828;6.440;2022-07-25T08:40:14;5.28;;;4.57;;
19554;SDS011;9924;50.828;6.440;2022-07-25T08:42:40;6.15;;;4.60;;
19554;SDS011;9924;50.828;6.440;2022-07-25T08:45:07;5.95;;;4.68;;
19554;SDS011;9924;50.828;6.440;2022-07-25T08:47:34;6.82;;;4.85;;
19554;SDS011;9924;50.828;6.440;2022-07-25T08:50:02;7.03;;;4.53;;
19554;SDS011;9924;50.828;6.440;2022-07-25T08:52:29;7.82;;;4.90;;
19554;SDS011;9924;50.828;6.440;2022-07-25T08:54:59;8.02;;;4.80;;
19554;SDS011;9924;50.828;6.440;2022-07-25T08:57:26;6.93;;;5.10;;
19554;SDS011;9924;50.828;6.440;2022-07-25T08:59:55;8.68;;;4.85;;
19554;SDS011;9924;50.828;6.440;2022-07-25T09:02:27;8.32;;;5.07;;
19554;SDS011;9924;50.828;6.440;2022-07-25T09:04:54;8.98;;;4.65;;
19554;SDS011;9924;50.828;6.440;2022-07-25T09:07:32;7.60;;;4.70;;
19554;SDS011;9924;50.828;6.440;2022-07-25T09:10:11;5.72;;;4.80;;
19554;SDS011;9924;50.828;6.440;2022-07-25T09:12:40;7.10;;;5.00;;
19554;SDS011;9924;50.828;6.440;2022-07-25T09:15:07;7.32;;;5.18;;
19554;SDS011;9924;50.828;6.440;2022-07-25T09:17:36;11.63;;;5.47;;
19554;SDS011;9924;50.828;6.440;2022-07-25T09:20:02;11.07;;;4.93;;
19554;SDS011;9924;50.828;6.440;2022-07-25T09:22:30;9.40;;;5.10;;
19554;SDS011;9924;50.828;6.440;2022-07-25T09:25:16;5.85;;;4.90;;
19554;SDS011;9924;50.828;6.440;2022-07-25T09:27:45;8.07;;;5.60;;
19554;SDS011;9924;50.828;6.440;2022-07-25T09:30:14;8.32;;;4.93;;
19554;SDS011;9924;50.828;6.440;2022-07-25T09:32:40;9.27;;;5.07;;
19554;SDS011;9924;50.828;6.440;2022-07-25T09:35:09;7.57;;;5.55;;
19554;SDS011;9924;50.828;6.440;2022-07-25T09:37:35;7.55;;;4.75;;
19554;SDS011;9924;50.828;6.440;2022-07-25T09:40:00;10.55;;;5.32;;
19554;SDS011;9924;50.828;6.440;2022-07-25T09:42:35;8.43;;;4.88;;
19554;SDS011;9924;50.828;6.440;2022-07-25T09:47:36;7.57;;;5.07;;
19554;SDS011;9924;50.828;6.440;2022-07-25T09:50:15;11.70;;;6.30;;
19554;SDS011;9924;50.828;6.440;2022-07-25T09:52:41;6.50;;;5.20;;
19554;SDS011;9924;50.828;6.440;2022-07-25T09:55:09;9.90;;;5.07;;
19554;SDS011;9924;50.828;6.440;2022-07-25T09:57:37;6.95;;;4.82;;
19554;SDS011;9924;50.828;6.440;2022-07-25T10:00:04;8.88;;;4.93;;
19554;SDS011;9924;50.828;6.440;2022-07-25T10:05:15;6.95;;;4.97;;
19554;SDS011;9924;50.828;6.440;2022-07-25T10:07:48;8.40;;;5.45;;
19554;SDS011;9924;50.828;6.440;2022-07-25T10:10:21;6.70;;;4.78;;
19554;SDS011;9924;50.828;6.440;2022-07-25T10:13:02;10.23;;;5.22;;
19554;SDS011;9924;50.828;6.440;2022-07-25T10:15:39;8.80;;;5.70;;
19554;SDS011;9924;50.828;6.440;2022-07-25T10:18:07;10.48;;;5.53;;
19554;SDS011;9924;50.828;6.440;2022-07-25T10:20:33;6.68;;;4.78;;
19554;SDS011;9924;50.828;6.440;2022-07-25T10:22:59;10.68;;;4.97;;
19554;SDS011;9924;50.828;6.440;2022-07-25T10:25:25;5.80;;;4.53;;
19554;SDS011;9924;50.828;6.440;2022-07-25T10:27:57;7.05;;;4.57;;
19554;SDS011;9924;50.828;6.440;2022-07-25T10:30:38;7.05;;;4.65;;
19554;SDS011;9924;50.828;6.440;2022-07-25T10:35:36;6.28;;;3.83;;
19554;SDS011;9924;50.828;6.440;2022-07-25T10:38:03;5.30;;;3.70;;
19554;SDS011;9924;50.828;6.440;2022-07-25T10:43:14;6.32;;;3.60;;
19554;SDS011;9924;50.828;6.440;2022-07-25T10:45:51;5.88;;;3.25;;
19554;SDS011;9924;50.828;6.440;2022-07-25T10:48:22;5.68;;;3.78;;
19554;SDS011;9924;50.828;6.440;2022-07-25T10:50:56;7.55;;;3.40;;
19554;SDS011;9924;50.828;6.440;2022-07-25T10:56:18;8.05;;;3.58;;
19554;SDS011;9924;50.828;6.440;2022-07-25T10:58:48;4.28;;;3.40;;
19554;SDS011;9924;50.828;6.440;2022-07-25T11:01:34;7.35;;;3.47;;
19554;SDS011;9924;50.828;6.440;2022-07-25T11:04:04;5.60;;;3.47;;
19554;SDS011;9924;50.828;6.440;2022-07-25T11:06:39;6.70;;;2.92;;
19554;SDS011;9924;50.828;6.440;2022-07-25T11:11:45;6.05;;;2.97;;
19554;SDS011;9924;50.828;6.440;2022-07-25T11:14:13;6.57;;;2.88;;
19554;SDS011;9924;50.828;6.440;2022-07-25T11:16:41;4.75;;;3.60;;
19554;SDS011;9924;50.828;6.440;2022-07-25T11:19:18;6.30;;;3.78;;
19554;SDS011;9924;50.828;6.440;2022-07-25T11:21:47;6.05;;;3.33;;
19554;SDS011;9924;50.828;6.440;2022-07-25T11:24:17;5.82;;;3.30;;
19554;SDS011;9924;50.828;6.440;2022-07-25T11:26:50;5.53;;;3.90;;
19554;SDS011;9924;50.828;6.440;2022-07-25T11:29:20;4.88;;;3.00;;
19554;SDS011;9924;50.828;6.440;2022-07-25T11:32:03;5.85;;;3.05;;
19554;SDS011;9924;50.828;6.440;2022-07-25T11:34:34;7.05;;;3.83;;
19554;SDS011;9924;50.828;6.440;2022-07-25T11:37:02;6.35;;;3.45;;
19554;SDS011;9924;50.828;6.440;2022-07-25T11:39:30;6.32;;;3.60;;
19554;SDS011;9924;50.828;6.440;2022-07-25T11:42:04;5.90;;;3.40;;
19554;SDS011;9924;50.828;6.440;2022-07-25T11:47:05;4.00;;;3.53;;
19554;SDS011;9924;50.828;6.440;2022-07-25T11:49:46;3.85;;;3.22;;
19554;SDS011;9924;50.828;6.440;2022-07-25T11:52:20;6.75;;;3.97;;
19554;SDS011;9924;50.828;6.440;2022-07-25T11:54:57;6.00;;;3.58;;
19554;SDS011;9924;50.828;6.440;2022-07-25T11:57:28;5.07;;;3.47;;
19554;SDS011;9924;50.828;6.440;2022-07-25T11:59:56;5.32;;;2.83;;
19554;SDS011;9924;50.828;6.440;2022-07-25T12:02:25;4.72;;;2.67;;
19554;SDS011;9924;50.828;6.440;2022-07-25T12:05:00;7.07;;;3.00;;
19554;SDS011;9924;50.828;6.440;2022-07-25T12:10:13;4.90;;;2.58;;
19554;SDS011;9924;50.828;6.440;2022-07-25T12:12:44;4.82;;;2.35;;
19554;SDS011;9924;50.828;6.440;2022-07-25T12:15:15;5.28;;;2.50;;
19554;SDS011;9924;50.828;6.440;2022-07-25T12:17:51;3.25;;;2.05;;
19554;SDS011;9924;50.828;6.440;2022-07-25T12:20:19;5.47;;;2.67;;
19554;SDS011;9924;50.828;6.440;2022-07-25T12:22:51;5.00;;;2.15;;
19554;SDS011;9924;50.828;6.440;2022-07-25T12:25:18;7.53;;;2.70;;
19554;SDS011;9924;50.828;6.440;2022-07-25T12:27:44;8.32;;;2.42;;
19554;SDS011;9924;50.828;6.440;2022-07-25T12:30:10;4.28;;;3.00;;
19554;SDS011;9924;50.828;6.440;2022-07-25T12:32:36;6.03;;;2.55;;
19554;SDS011;9924;50.828;6.440;2022-07-25T12:35:06;2.70;;;2.47;;
19554;SDS011;9924;50.828;6.440;2022-07-25T12:37:34;4.60;;;2.13;;
19554;SDS011;9924;50.828;6.440;2022-07-25T12:40:00;5.40;;;2.85;;
19554;SDS011;9924;50.828;6.440;2022-07-25T12:42:26;5.78;;;2.70;;
19554;SDS011;9924;50.828;6.440;2022-07-25T12:44:54;3.53;;;2.30;;
19554;SDS011;9924;50.828;6.440;2022-07-25T12:47:21;4.72;;;2.00;;
19554;SDS011;9924;50.828;6.440;2022-07-25T12:49:47;2.25;;;1.88;;
19554;SDS011;9924;50.828;6.440;2022-07-25T12:52:13;3.53;;;1.95;;
19554;SDS011;9924;50.828;6.440;2022-07-25T12:54:39;4.80;;;2.22;;
19554;SDS011;9924;50.828;6.440;2022-07-25T12:57:05;3.08;;;1.80;;
19554;SDS011;9924;50.828;6.440;2022-07-25T12:59:31;3.70;;;1.98;;
19554;SDS011;9924;50.828;6.440;2022-07-25T13:01:57;4.78;;;2.00;;
19554;SDS011;9924;50.828;6.440;2022-07-25T13:04:23;9.95;;;1.85;;
19554;SDS011;9924;50.828;6.440;2022-07-25T13:06:55;7.57;;;1.90;;
19554;SDS011;9924;50.828;6.440;2022-07-25T13:09:22;3.65;;;2.00;;
19554;SDS011;9924;50.828;6.440;2022-07-25T13:11:48;2.72;;;1.88;;
19554;SDS011;9924;50.828;6.440;2022-07-25T13:14:15;4.35;;;1.70;;
19554;SDS011;9924;50.828;6.440;2022-07-25T13:16:44;4.75;;;1.88;;
19554;SDS011;9924;50.828;6.440;2022-07-25T13:19:11;6.57;;;1.83;;
19554;SDS011;9924;50.828;6.440;2022-07-25T13:21:38;2.30;;;1.60;;
19554;SDS011;9924;50.828;6.440;2022-07-25T13:24:04;3.10;;;1.67;;
19554;SDS011;9924;50.828;6.440;2022-07-25T13:26:31;5.65;;;1.80;;
19554;SDS011;9924;50.828;6.440;2022-07-25T13:28:57;9.40;;;2.08;;
19554;SDS011;9924;50.828;6.440;2022-07-25T13:31:23;3.58;;;1.65;;
19554;SDS011;9924;50.828;6.440;2022-07-25T13:33:49;3.38;;;1.90;;
19554;SDS011;9924;50.828;6.440;2022-07-25T13:36:15;3.92;;;2.00;;
19554;SDS011;9924;50.828;6.440;2022-07-25T13:38:42;4.07;;;2.20;;
19554;SDS011;9924;50.828;6.440;2022-07-25T13:41:10;3.42;;;1.60;;
19554;SDS011;9924;50.828;6.440;2022-07-25T13:43:37;5.43;;;1.70;;
19554;SDS011;9924;50.828;6.440;2022-07-25T13:46:04;3.25;;;1.70;;
19554;SDS011;9924;50.828;6.440;2022-07-25T13:48:30;4.47;;;2.10;;
19554;SDS011;9924;50.828;6.440;2022-07-25T13:50:56;4.50;;;2.10;;
19554;SDS011;9924;50.828;6.440;2022-07-25T13:53:23;3.22;;;2.20;;
19554;SDS011;9924;50.828;6.440;2022-07-25T13:55:49;6.10;;;1.98;;
19554;SDS011;9924;50.828;6.440;2022-07-25T13:58:15;7.18;;;2.60;;
19554;SDS011;9924;50.828;6.440;2022-07-25T14:00:41;10.55;;;2.10;;
19554;SDS011;9924;50.828;6.440;2022-07-25T14:03:07;9.60;;;2.50;;
19554;SDS011;9924;50.828;6.440;2022-07-25T14:05:33;9.57;;;2.08;;
19554;SDS011;9924;50.828;6.440;2022-07-25T14:07:59;3.28;;;1.63;;
19554;SDS011;9924;50.828;6.440;2022-07-25T14:10:25;4.43;;;2.05;;
19554;SDS011;9924;50.828;6.440;2022-07-25T14:12:51;10.68;;;2.13;;
19554;SDS011;9924;50.828;6.440;2022-07-25T14:15:17;9.27;;;2.13;;
19554;SDS011;9924;50.828;6.440;2022-07-25T14:17:43;7.00;;;1.80;;
19554;SDS011;9924;50.828;6.440;2022-07-25T14:20:10;5.80;;;2.00;;
19554;SDS011;9924;50.828;6.440;2022-07-25T14:22:36;5.60;;;1.90;;
19554;SDS011;9924;50.828;6.440;2022-07-25T14:25:03;3.10;;;1.95;;
19554;SDS011;9924;50.828;6.440;2022-07-25T14:27:30;13.57;;;3.25;;
19554;SDS011;9924;50.828;6.440;2022-07-25T14:29:57;5.68;;;2.40;;
19554;SDS011;9924;50.828;6.440;2022-07-25T14:32:23;10.38;;;2.55;;
19554;SDS011;9924;50.828;6.440;2022-07-25T14:34:49;8.82;;;2.38;;
19554;SDS011;9924;50.828;6.440;2022-07-25T14:37:16;9.93;;;2.40;;
19554;SDS011;9924;50.828;6.440;2022-07-25T14:39:43;10.75;;;2.65;;
19554;SDS011;9924;50.828;6.440;2022-07-25T14:42:09;10.10;;;2.40;;
19554;SDS011;9924;50.828;6.440;2022-07-25T14:44:36;7.57;;;2.50;;
19554;SDS011;9924;50.828;6.440;2022-07-25T14:47:02;9.10;;;2.30;;
19554;SDS011;9924;50.828;6.440;2022-07-25T14:49:29;6.47;;;2.35;;
19554;SDS011;9924;50.828;6.440;2022-07-25T14:51:55;6.18;;;1.95;;
19554;SDS011;9924;50.828;6.440;2022-07-25T14:54:21;5.65;;;2.22;;
19554;SDS011;9924;50.828;6.440;2022-07-25T14:56:46;6.53;;;2.33;;
19554;SDS011;9924;50.828;6.440;2022-07-25T14:59:12;4.57;;;1.98;;
19554;SDS011;9924;50.828;6.440;2022-07-25T15:01:38;6.00;;;1.90;;
19554;SDS011;9924;50.828;6.440;2022-07-25T15:04:04;7.25;;;2.03;;
19554;SDS011;9924;50.828;6.440;2022-07-25T15:06:30;3.13;;;1.52;;
19554;SDS011;9924;50.828;6.440;2022-07-25T15:08:56;5.35;;;1.75;;
19554;SDS011;9924;50.828;6.440;2022-07-25T15:11:22;5.78;;;1.65;;
19554;SDS011;9924;50.828;6.440;2022-07-25T15:13:48;5.85;;;2.00;;
19554;SDS011;9924;50.828;6.440;2022-07-25T15:16:15;5.85;;;2.08;;
19554;SDS011;9924;50.828;6.440;2022-07-25T15:18:41;4.55;;;1.63;;
19554;SDS011;9924;50.828;6.440;2022-07-25T15:21:08;4.97;;;1.67;;